Terminal Aerodrome Forecast
Issued by NWS Boston, MA

Home | Current Version | Previous Version | Text Only | Print | Product List | Glossary On
Versions: 1 2 3 4 5 6 7 8 9 10 11 12 13 14 15 16 17 18 19 20 21 22 23 24
000
FTUS41 KBOX 260540
TAFBDL
TAF
KBDL 260540Z 2606/2712 VRB03KT P6SM SKC
     FM261900 18007KT P6SM FEW150
     FM270500 18007KT P6SM -RA BKN050
     FM270700 18008KT P6SM -RA OVC025
     FM271100 21006KT 3SM BR VCSH OVC008=

USA.gov is the U.S. government's official web portal to all federal, state and local government web resources and services.